sensor_id;sensor_type;location;lat;lon;timestamp;P1;durP1;ratioP1;P2;durP2;ratioP2
12312;SDS011;6220;53.580;9.758;2023-07-31T00:01:17;6.13;;;2.00;;
12312;SDS011;6220;53.580;9.758;2023-07-31T00:03:42;7.17;;;2.47;;
12312;SDS011;6220;53.580;9.758;2023-07-31T00:06:07;5.70;;;2.30;;
12312;SDS011;6220;53.580;9.758;2023-07-31T00:08:32;5.20;;;2.13;;
12312;SDS011;6220;53.580;9.758;2023-07-31T00:10:58;5.57;;;2.23;;
12312;SDS011;6220;53.580;9.758;2023-07-31T00:13:23;7.30;;;2.50;;
12312;SDS011;6220;53.580;9.758;2023-07-31T00:15:50;5.03;;;2.20;;
12312;SDS011;6220;53.580;9.758;2023-07-31T00:18:15;3.47;;;2.00;;
12312;SDS011;6220;53.580;9.758;2023-07-31T00:20:41;6.43;;;2.23;;
12312;SDS011;6220;53.580;9.758;2023-07-31T00:23:06;5.90;;;2.10;;
12312;SDS011;6220;53.580;9.758;2023-07-31T00:25:31;7.83;;;2.27;;
12312;SDS011;6220;53.580;9.758;2023-07-31T00:27:57;6.90;;;2.50;;
12312;SDS011;6220;53.580;9.758;2023-07-31T00:30:23;4.90;;;2.17;;
12312;SDS011;6220;53.580;9.758;2023-07-31T00:32:51;5.80;;;2.30;;
12312;SDS011;6220;53.580;9.758;2023-07-31T00:35:17;6.27;;;2.30;;
12312;SDS011;6220;53.580;9.758;2023-07-31T00:37:42;7.60;;;2.53;;
12312;SDS011;6220;53.580;9.758;2023-07-31T00:40:08;4.97;;;2.33;;
12312;SDS011;6220;53.580;9.758;2023-07-31T00:42:33;9.30;;;2.80;;
12312;SDS011;6220;53.580;9.758;2023-07-31T00:44:59;6.90;;;2.23;;
12312;SDS011;6220;53.580;9.758;2023-07-31T00:47:24;5.47;;;2.37;;
12312;SDS011;6220;53.580;9.758;2023-07-31T00:49:50;6.00;;;2.43;;
12312;SDS011;6220;53.580;9.758;2023-07-31T00:52:15;7.37;;;2.57;;
12312;SDS011;6220;53.580;9.758;2023-07-31T00:54:41;6.10;;;2.00;;
12312;SDS011;6220;53.580;9.758;2023-07-31T00:57:06;5.57;;;2.20;;
12312;SDS011;6220;53.580;9.758;2023-07-31T00:59:33;6.17;;;2.50;;
12312;SDS011;6220;53.580;9.758;2023-07-31T01:01:58;7.43;;;2.10;;
12312;SDS011;6220;53.580;9.758;2023-07-31T01:04:24;6.47;;;2.00;;
12312;SDS011;6220;53.580;9.758;2023-07-31T01:09:42;4.40;;;2.37;;
12312;SDS011;6220;53.580;9.758;2023-07-31T01:12:13;5.27;;;2.10;;
12312;SDS011;6220;53.580;9.758;2023-07-31T01:14:50;6.60;;;2.50;;
12312;SDS011;6220;53.580;9.758;2023-07-31T01:17:40;6.70;;;2.30;;
12312;SDS011;6220;53.580;9.758;2023-07-31T01:20:10;5.50;;;2.30;;
12312;SDS011;6220;53.580;9.758;2023-07-31T01:25:21;5.27;;;2.20;;
12312;SDS011;6220;53.580;9.758;2023-07-31T01:28:00;9.67;;;2.60;;
12312;SDS011;6220;53.580;9.758;2023-07-31T01:30:28;5.50;;;2.10;;
12312;SDS011;6220;53.580;9.758;2023-07-31T01:33:00;9.90;;;2.50;;
12312;SDS011;6220;53.580;9.758;2023-07-31T01:35:28;9.57;;;2.27;;
12312;SDS011;6220;53.580;9.758;2023-07-31T01:37:54;4.47;;;2.37;;
12312;SDS011;6220;53.580;9.758;2023-07-31T01:40:21;6.43;;;2.43;;
12312;SDS011;6220;53.580;9.758;2023-07-31T01:42:46;5.17;;;2.23;;
12312;SDS011;6220;53.580;9.758;2023-07-31T01:45:11;6.97;;;2.57;;
12312;SDS011;6220;53.580;9.758;2023-07-31T01:47:37;6.93;;;2.60;;
12312;SDS011;6220;53.580;9.758;2023-07-31T01:50:02;9.37;;;2.50;;
12312;SDS011;6220;53.580;9.758;2023-07-31T01:52:28;8.23;;;2.57;;
12312;SDS011;6220;53.580;9.758;2023-07-31T01:54:55;5.20;;;2.50;;
12312;SDS011;6220;53.580;9.758;2023-07-31T01:57:20;6.87;;;2.93;;
12312;SDS011;6220;53.580;9.758;2023-07-31T01:59:47;9.90;;;2.73;;
12312;SDS011;6220;53.580;9.758;2023-07-31T02:02:12;8.10;;;2.80;;
12312;SDS011;6220;53.580;9.758;2023-07-31T02:04:38;7.70;;;2.57;;
12312;SDS011;6220;53.580;9.758;2023-07-31T02:07:04;5.47;;;2.70;;
12312;SDS011;6220;53.580;9.758;2023-07-31T02:09:30;6.50;;;2.43;;
12312;SDS011;6220;53.580;9.758;2023-07-31T02:11:55;5.37;;;2.60;;
12312;SDS011;6220;53.580;9.758;2023-07-31T02:14:20;4.43;;;2.37;;
12312;SDS011;6220;53.580;9.758;2023-07-31T02:16:46;11.40;;;2.97;;
12312;SDS011;6220;53.580;9.758;2023-07-31T02:19:11;5.37;;;2.80;;
12312;SDS011;6220;53.580;9.758;2023-07-31T02:21:36;4.60;;;2.67;;
12312;SDS011;6220;53.580;9.758;2023-07-31T02:24:02;6.20;;;2.90;;
12312;SDS011;6220;53.580;9.758;2023-07-31T02:26:27;7.30;;;2.90;;
12312;SDS011;6220;53.580;9.758;2023-07-31T02:28:53;7.53;;;2.90;;
12312;SDS011;6220;53.580;9.758;2023-07-31T02:31:18;10.60;;;3.00;;
12312;SDS011;6220;53.580;9.758;2023-07-31T02:33:43;6.40;;;3.40;;
12312;SDS011;6220;53.580;9.758;2023-07-31T02:36:09;8.40;;;2.93;;
12312;SDS011;6220;53.580;9.758;2023-07-31T02:38:34;9.50;;;3.00;;
12312;SDS011;6220;53.580;9.758;2023-07-31T02:40:59;11.67;;;3.07;;
12312;SDS011;6220;53.580;9.758;2023-07-31T02:43:26;6.53;;;2.97;;
12312;SDS011;6220;53.580;9.758;2023-07-31T02:45:51;5.60;;;2.80;;
12312;SDS011;6220;53.580;9.758;2023-07-31T02:48:17;6.23;;;2.80;;
12312;SDS011;6220;53.580;9.758;2023-07-31T02:50:44;6.43;;;2.80;;
12312;SDS011;6220;53.580;9.758;2023-07-31T02:53:10;8.23;;;2.93;;
12312;SDS011;6220;53.580;9.758;2023-07-31T02:55:36;5.50;;;2.50;;
12312;SDS011;6220;53.580;9.758;2023-07-31T02:58:01;6.50;;;2.73;;
12312;SDS011;6220;53.580;9.758;2023-07-31T03:00:27;5.50;;;2.90;;
12312;SDS011;6220;53.580;9.758;2023-07-31T03:02:52;7.47;;;2.80;;
12312;SDS011;6220;53.580;9.758;2023-07-31T03:05:18;6.90;;;3.10;;
12312;SDS011;6220;53.580;9.758;2023-07-31T03:07:43;6.53;;;3.13;;
12312;SDS011;6220;53.580;9.758;2023-07-31T03:10:08;4.47;;;2.60;;
12312;SDS011;6220;53.580;9.758;2023-07-31T03:12:34;8.50;;;3.10;;
12312;SDS011;6220;53.580;9.758;2023-07-31T03:15:00;6.40;;;2.77;;
12312;SDS011;6220;53.580;9.758;2023-07-31T03:17:26;7.63;;;3.10;;
12312;SDS011;6220;53.580;9.758;2023-07-31T03:19:52;8.13;;;3.13;;
12312;SDS011;6220;53.580;9.758;2023-07-31T03:22:17;6.43;;;2.77;;
12312;SDS011;6220;53.580;9.758;2023-07-31T03:24:43;8.23;;;2.87;;
12312;SDS011;6220;53.580;9.758;2023-07-31T03:27:08;10.80;;;2.90;;
12312;SDS011;6220;53.580;9.758;2023-07-31T03:29:34;4.80;;;2.80;;
12312;SDS011;6220;53.580;9.758;2023-07-31T03:32:00;6.60;;;2.97;;
12312;SDS011;6220;53.580;9.758;2023-07-31T03:34:25;3.73;;;2.60;;
12312;SDS011;6220;53.580;9.758;2023-07-31T03:36:51;5.77;;;2.73;;
12312;SDS011;6220;53.580;9.758;2023-07-31T03:39:16;5.53;;;2.70;;
12312;SDS011;6220;53.580;9.758;2023-07-31T03:41:42;5.13;;;3.00;;
12312;SDS011;6220;53.580;9.758;2023-07-31T03:44:07;4.97;;;2.83;;
12312;SDS011;6220;53.580;9.758;2023-07-31T03:46:32;5.20;;;2.90;;
12312;SDS011;6220;53.580;9.758;2023-07-31T03:48:58;5.90;;;3.10;;
12312;SDS011;6220;53.580;9.758;2023-07-31T03:51:24;7.40;;;3.00;;
12312;SDS011;6220;53.580;9.758;2023-07-31T03:53:49;6.20;;;2.87;;
12312;SDS011;6220;53.580;9.758;2023-07-31T03:56:14;6.00;;;2.90;;
12312;SDS011;6220;53.580;9.758;2023-07-31T03:58:40;5.70;;;2.80;;
12312;SDS011;6220;53.580;9.758;2023-07-31T04:01:05;5.07;;;2.60;;
12312;SDS011;6220;53.580;9.758;2023-07-31T04:03:32;4.10;;;3.00;;
12312;SDS011;6220;53.580;9.758;2023-07-31T04:05:57;7.80;;;2.90;;
12312;SDS011;6220;53.580;9.758;2023-07-31T04:08:24;3.40;;;2.37;;
12312;SDS011;6220;53.580;9.758;2023-07-31T04:10:50;3.17;;;2.50;;
12312;SDS011;6220;53.580;9.758;2023-07-31T04:13:15;5.67;;;2.53;;
12312;SDS011;6220;53.580;9.758;2023-07-31T04:15:41;3.47;;;2.60;;
12312;SDS011;6220;53.580;9.758;2023-07-31T04:18:07;3.07;;;2.40;;
12312;SDS011;6220;53.580;9.758;2023-07-31T04:20:32;5.00;;;2.73;;
12312;SDS011;6220;53.580;9.758;2023-07-31T04:22:57;4.03;;;2.40;;
12312;SDS011;6220;53.580;9.758;2023-07-31T04:25:23;5.37;;;2.47;;
12312;SDS011;6220;53.580;9.758;2023-07-31T04:27:48;2.60;;;2.10;;
12312;SDS011;6220;53.580;9.758;2023-07-31T04:30:14;3.87;;;2.77;;
12312;SDS011;6220;53.580;9.758;2023-07-31T04:32:39;4.20;;;2.50;;
12312;SDS011;6220;53.580;9.758;2023-07-31T04:35:05;2.40;;;2.20;;
12312;SDS011;6220;53.580;9.758;2023-07-31T04:37:30;4.73;;;2.40;;
12312;SDS011;6220;53.580;9.758;2023-07-31T04:39:56;3.07;;;2.20;;
12312;SDS011;6220;53.580;9.758;2023-07-31T04:42:21;4.60;;;2.23;;
12312;SDS011;6220;53.580;9.758;2023-07-31T04:44:47;2.90;;;2.07;;
12312;SDS011;6220;53.580;9.758;2023-07-31T04:47:12;2.00;;;1.90;;
12312;SDS011;6220;53.580;9.758;2023-07-31T04:49:37;5.17;;;2.57;;
12312;SDS011;6220;53.580;9.758;2023-07-31T04:52:03;2.97;;;2.57;;
12312;SDS011;6220;53.580;9.758;2023-07-31T04:54:29;2.77;;;2.20;;
12312;SDS011;6220;53.580;9.758;2023-07-31T04:56:56;3.43;;;2.30;;
12312;SDS011;6220;53.580;9.758;2023-07-31T04:59:22;2.93;;;2.10;;
12312;SDS011;6220;53.580;9.758;2023-07-31T05:01:48;3.43;;;2.20;;
12312;SDS011;6220;53.580;9.758;2023-07-31T05:04:15;3.20;;;2.23;;
12312;SDS011;6220;53.580;9.758;2023-07-31T05:06:40;2.27;;;2.07;;
12312;SDS011;6220;53.580;9.758;2023-07-31T05:09:06;3.47;;;2.03;;
12312;SDS011;6220;53.580;9.758;2023-07-31T05:11:32;3.50;;;2.50;;
12312;SDS011;6220;53.580;9.758;2023-07-31T05:13:57;2.40;;;2.20;;
12312;SDS011;6220;53.580;9.758;2023-07-31T05:16:22;2.50;;;2.10;;
12312;SDS011;6220;53.580;9.758;2023-07-31T05:18:49;1.87;;;1.73;;
12312;SDS011;6220;53.580;9.758;2023-07-31T05:21:14;2.30;;;2.10;;
12312;SDS011;6220;53.580;9.758;2023-07-31T05:23:41;2.83;;;2.20;;
12312;SDS011;6220;53.580;9.758;2023-07-31T05:26:06;2.53;;;1.80;;
12312;SDS011;6220;53.580;9.758;2023-07-31T05:28:34;2.50;;;2.30;;
12312;SDS011;6220;53.580;9.758;2023-07-31T05:31:00;2.43;;;1.83;;
12312;SDS011;6220;53.580;9.758;2023-07-31T05:33:26;3.20;;;1.90;;
12312;SDS011;6220;53.580;9.758;2023-07-31T05:35:51;2.30;;;2.10;;
12312;SDS011;6220;53.580;9.758;2023-07-31T05:38:17;2.37;;;2.17;;
12312;SDS011;6220;53.580;9.758;2023-07-31T05:40:42;2.57;;;1.90;;
12312;SDS011;6220;53.580;9.758;2023-07-31T05:43:08;2.00;;;1.80;;
12312;SDS011;6220;53.580;9.758;2023-07-31T05:45:34;2.00;;;1.80;;
12312;SDS011;6220;53.580;9.758;2023-07-31T05:47:59;2.37;;;1.87;;
12312;SDS011;6220;53.580;9.758;2023-07-31T05:50:25;3.17;;;1.77;;
12312;SDS011;6220;53.580;9.758;2023-07-31T05:52:50;2.23;;;1.80;;
12312;SDS011;6220;53.580;9.758;2023-07-31T05:55:16;2.00;;;1.80;;
12312;SDS011;6220;53.580;9.758;2023-07-31T05:57:41;2.73;;;2.10;;
12312;SDS011;6220;53.580;9.758;2023-07-31T06:00:11;2.37;;;2.07;;
12312;SDS011;6220;53.580;9.758;2023-07-31T06:02:36;2.83;;;1.90;;
12312;SDS011;6220;53.580;9.758;2023-07-31T06:05:03;2.47;;;1.83;;
12312;SDS011;6220;53.580;9.758;2023-07-31T06:07:30;3.90;;;2.00;;
12312;SDS011;6220;53.580;9.758;2023-07-31T06:09:56;2.30;;;2.10;;
12312;SDS011;6220;53.580;9.758;2023-07-31T06:12:23;2.97;;;1.90;;
12312;SDS011;6220;53.580;9.758;2023-07-31T06:14:50;2.57;;;2.10;;
12312;SDS011;6220;53.580;9.758;2023-07-31T06:17:15;2.53;;;1.80;;
12312;SDS011;6220;53.580;9.758;2023-07-31T06:19:40;2.07;;;1.80;;
12312;SDS011;6220;53.580;9.758;2023-07-31T06:22:06;2.23;;;1.90;;
12312;SDS011;6220;53.580;9.758;2023-07-31T06:24:31;1.80;;;1.70;;
12312;SDS011;6220;53.580;9.758;2023-07-31T06:26:58;3.20;;;2.10;;
12312;SDS011;6220;53.580;9.758;2023-07-31T06:29:23;3.10;;;2.00;;
12312;SDS011;6220;53.580;9.758;2023-07-31T06:31:50;2.07;;;1.90;;
12312;SDS011;6220;53.580;9.758;2023-07-31T06:34:15;2.33;;;1.87;;
12312;SDS011;6220;53.580;9.758;2023-07-31T06:36:41;2.20;;;2.00;;
12312;SDS011;6220;53.580;9.758;2023-07-31T06:39:06;1.80;;;1.70;;
12312;SDS011;6220;53.580;9.758;2023-07-31T06:41:31;3.80;;;1.80;;
12312;SDS011;6220;53.580;9.758;2023-07-31T06:43:57;1.53;;;1.43;;
12312;SDS011;6220;53.580;9.758;2023-07-31T06:46:22;2.33;;;1.80;;
12312;SDS011;6220;53.580;9.758;2023-07-31T06:48:48;3.63;;;2.07;;
12312;SDS011;6220;53.580;9.758;2023-07-31T06:51:13;2.90;;;1.80;;
12312;SDS011;6220;53.580;9.758;2023-07-31T06:53:38;1.80;;;1.70;;
12312;SDS011;6220;53.580;9.758;2023-07-31T06:56:04;2.40;;;1.57;;
12312;SDS011;6220;53.580;9.758;2023-07-31T06:58:29;2.70;;;1.50;;
12312;SDS011;6220;53.580;9.758;2023-07-31T07:00:54;2.30;;;1.50;;
12312;SDS011;6220;53.580;9.758;2023-07-31T07:03:20;1.80;;;1.70;;
12312;SDS011;6220;53.580;9.758;2023-07-31T07:05:45;1.93;;;1.67;;
12312;SDS011;6220;53.580;9.758;2023-07-31T07:08:11;1.93;;;1.73;;
12312;SDS011;6220;53.580;9.758;2023-07-31T07:10:36;2.87;;;1.90;;
12312;SDS011;6220;53.580;9.758;2023-07-31T07:13:02;1.83;;;1.50;;
12312;SDS011;6220;53.580;9.758;2023-07-31T07:15:27;2.13;;;1.80;;
12312;SDS011;6220;53.580;9.758;2023-07-31T07:17:54;3.47;;;2.20;;
12312;SDS011;6220;53.580;9.758;2023-07-31T07:20:19;1.70;;;1.60;;
12312;SDS011;6220;53.580;9.758;2023-07-31T07:22:45;1.83;;;1.70;;
12312;SDS011;6220;53.580;9.758;2023-07-31T07:25:10;2.13;;;2.00;;
12312;SDS011;6220;53.580;9.758;2023-07-31T07:27:35;2.17;;;1.80;;
12312;SDS011;6220;53.580;9.758;2023-07-31T07:30:01;3.00;;;1.90;;
12312;SDS011;6220;53.580;9.758;2023-07-31T07:32:26;1.87;;;1.77;;
12312;SDS011;6220;53.580;9.758;2023-07-31T07:34:52;2.37;;;2.17;;
12312;SDS011;6220;53.580;9.758;2023-07-31T07:37:17;2.57;;;2.37;;
12312;SDS011;6220;53.580;9.758;2023-07-31T07:39:42;2.60;;;2.40;;
12312;SDS011;6220;53.580;9.758;2023-07-31T07:42:08;3.37;;;2.40;;
12312;SDS011;6220;53.580;9.758;2023-07-31T07:44:33;2.37;;;1.90;;
12312;SDS011;6220;53.580;9.758;2023-07-31T07:46:58;2.10;;;1.90;;
12312;SDS011;6220;53.580;9.758;2023-07-31T07:49:25;1.90;;;1.80;;
12312;SDS011;6220;53.580;9.758;2023-07-31T07:51:51;2.23;;;1.67;;
12312;SDS011;6220;53.580;9.758;2023-07-31T07:54:16;1.70;;;1.60;;
12312;SDS011;6220;53.580;9.758;2023-07-31T07:56:42;1.97;;;1.73;;
12312;SDS011;6220;53.580;9.758;2023-07-31T07:59:07;3.03;;;2.30;;
12312;SDS011;6220;53.580;9.758;2023-07-31T08:01:33;2.33;;;2.13;;
12312;SDS011;6220;53.580;9.758;2023-07-31T08:03:58;1.83;;;1.73;;
12312;SDS011;6220;53.580;9.758;2023-07-31T08:06:25;2.50;;;2.03;;
12312;SDS011;6220;53.580;9.758;2023-07-31T08:08:50;1.73;;;1.63;;
12312;SDS011;6220;53.580;9.758;2023-07-31T08:11:17;2.40;;;1.50;;
12312;SDS011;6220;53.580;9.758;2023-07-31T08:13:42;2.67;;;1.93;;
12312;SDS011;6220;53.580;9.758;2023-07-31T08:16:08;2.90;;;1.93;;
12312;SDS011;6220;53.580;9.758;2023-07-31T08:18:33;1.70;;;1.60;;
12312;SDS011;6220;53.580;9.758;2023-07-31T08:21:01;2.73;;;1.60;;
12312;SDS011;6220;53.580;9.758;2023-07-31T08:23:27;1.40;;;1.30;;
12312;SDS011;6220;53.580;9.758;2023-07-31T08:25:52;1.47;;;1.37;;
12312;SDS011;6220;53.580;9.758;2023-07-31T08:28:18;1.43;;;1.33;;
12312;SDS011;6220;53.580;9.758;2023-07-31T08:30:43;1.90;;;1.50;;
12312;SDS011;6220;53.580;9.758;2023-07-31T08:33:08;2.53;;;1.67;;
12312;SDS011;6220;53.580;9.758;2023-07-31T08:35:34;2.60;;;1.40;;
12312;SDS011;6220;53.580;9.758;2023-07-31T08:37:59;1.63;;;1.40;;
12312;SDS011;6220;53.580;9.758;2023-07-31T08:40:24;1.30;;;1.20;;
12312;SDS011;6220;53.580;9.758;2023-07-31T08:42:52;1.40;;;1.30;;
12312;SDS011;6220;53.580;9.758;2023-07-31T08:45:18;2.00;;;1.40;;
12312;SDS011;6220;53.580;9.758;2023-07-31T08:47:45;1.60;;;1.50;;
12312;SDS011;6220;53.580;9.758;2023-07-31T08:50:12;1.57;;;1.10;;
12312;SDS011;6220;53.580;9.758;2023-07-31T08:52:38;1.50;;;1.30;;
12312;SDS011;6220;53.580;9.758;2023-07-31T08:55:04;1.10;;;1.10;;
12312;SDS011;6220;53.580;9.758;2023-07-31T08:57:32;1.87;;;1.10;;
12312;SDS011;6220;53.580;9.758;2023-07-31T09:00:00;2.20;;;1.60;;
12312;SDS011;6220;53.580;9.758;2023-07-31T09:02:26;1.20;;;1.00;;
12312;SDS011;6220;53.580;9.758;2023-07-31T09:04:56;1.33;;;1.03;;
12312;SDS011;6220;53.580;9.758;2023-07-31T09:07:22;1.70;;;1.10;;
12312;SDS011;6220;53.580;9.758;2023-07-31T09:09:49;2.60;;;1.17;;
12312;SDS011;6220;53.580;9.758;2023-07-31T09:12:14;1.73;;;1.30;;
12312;SDS011;6220;53.580;9.758;2023-07-31T09:14:40;2.00;;;1.13;;
12312;SDS011;6220;53.580;9.758;2023-07-31T09:17:07;1.30;;;1.20;;
12312;SDS011;6220;53.580;9.758;2023-07-31T09:19:33;1.27;;;1.17;;
12312;SDS011;6220;53.580;9.758;2023-07-31T09:22:01;2.03;;;1.40;;
12312;SDS011;6220;53.580;9.758;2023-07-31T09:24:28;2.80;;;1.50;;
12312;SDS011;6220;53.580;9.758;2023-07-31T09:26:55;1.40;;;1.30;;
12312;SDS011;6220;53.580;9.758;2023-07-31T09:29:21;2.30;;;1.30;;
12312;SDS011;6220;53.580;9.758;2023-07-31T09:31:47;1.77;;;1.40;;
12312;SDS011;6220;53.580;9.758;2023-07-31T09:34:12;1.97;;;1.30;;
12312;SDS011;6220;53.580;9.758;2023-07-31T09:36:46;1.30;;;1.20;;
12312;SDS011;6220;53.580;9.758;2023-07-31T09:39:12;1.40;;;1.30;;
12312;SDS011;6220;53.580;9.758;2023-07-31T09:41:38;1.57;;;1.43;;
12312;SDS011;6220;53.580;9.758;2023-07-31T09:44:05;2.23;;;1.33;;
12312;SDS011;6220;53.580;9.758;2023-07-31T09:46:30;3.30;;;1.40;;
12312;SDS011;6220;53.580;9.758;2023-07-31T09:49:08;1.50;;;1.27;;
12312;SDS011;6220;53.580;9.758;2023-07-31T09:51:38;1.20;;;1.10;;
12312;SDS011;6220;53.580;9.758;2023-07-31T09:54:14;1.30;;;1.20;;
12312;SDS011;6220;53.580;9.758;2023-07-31T09:56:41;1.87;;;1.30;;
12312;SDS011;6220;53.580;9.758;2023-07-31T09:59:12;2.00;;;1.40;;
12312;SDS011;6220;53.580;9.758;2023-07-31T10:01:39;1.23;;;1.13;;
12312;SDS011;6220;53.580;9.758;2023-07-31T10:04:05;1.57;;;1.47;;
12312;SDS011;6220;53.580;9.758;2023-07-31T10:06:33;1.50;;;1.40;;
12312;SDS011;6220;53.580;9.758;2023-07-31T10:08:59;1.40;;;1.30;;
12312;SDS011;6220;53.580;9.758;2023-07-31T10:11:25;1.93;;;1.50;;
12312;SDS011;6220;53.580;9.758;2023-07-31T10:13:52;1.27;;;1.17;;
12312;SDS011;6220;53.580;9.758;2023-07-31T10:16:19;4.23;;;1.47;;
12312;SDS011;6220;53.580;9.758;2023-07-31T10:18:45;1.93;;;1.40;;
12312;SDS011;6220;53.580;9.758;2023-07-31T10:21:11;1.73;;;1.30;;
12312;SDS011;6220;53.580;9.758;2023-07-31T10:23:36;2.87;;;1.47;;
12312;SDS011;6220;53.580;9.758;2023-07-31T10:26:02;2.40;;;1.20;;
12312;SDS011;6220;53.580;9.758;2023-07-31T10:28:27;2.13;;;1.30;;
12312;SDS011;6220;53.580;9.758;2023-07-31T10:30:54;1.43;;;1.33;;
12312;SDS011;6220;53.580;9.758;2023-07-31T10:33:20;1.40;;;1.30;;
12312;SDS011;6220;53.580;9.758;2023-07-31T10:35:47;1.83;;;1.27;;
12312;SDS011;6220;53.580;9.758;2023-07-31T10:38:13;1.03;;;0.90;;
12312;SDS011;6220;53.580;9.758;2023-07-31T10:40:39;1.17;;;0.90;;
12312;SDS011;6220;53.580;9.758;2023-07-31T10:43:05;1.10;;;1.00;;
12312;SDS011;6220;53.580;9.758;2023-07-31T10:45:37;1.40;;;1.10;;
12312;SDS011;6220;53.580;9.758;2023-07-31T10:48:17;1.90;;;1.20;;
12312;SDS011;6220;53.580;9.758;2023-07-31T10:50:47;1.07;;;0.80;;
12312;SDS011;6220;53.580;9.758;2023-07-31T10:53:22;1.40;;;1.00;;
12312;SDS011;6220;53.580;9.758;2023-07-31T10:55:49;0.93;;;0.80;;
12312;SDS011;6220;53.580;9.758;2023-07-31T10:58:17;1.20;;;1.10;;
12312;SDS011;6220;53.580;9.758;2023-07-31T11:00:44;1.37;;;1.00;;
12312;SDS011;6220;53.580;9.758;2023-07-31T11:10:40;1.07;;;0.97;;
12312;SDS011;6220;53.580;9.758;2023-07-31T11:13:05;0.77;;;0.70;;
12312;SDS011;6220;53.580;9.758;2023-07-31T11:15:31;0.80;;;0.80;;
12312;SDS011;6220;53.580;9.758;2023-07-31T11:17:56;0.73;;;0.73;;
12312;SDS011;6220;53.580;9.758;2023-07-31T11:20:24;1.07;;;0.90;;
12312;SDS011;6220;53.580;9.758;2023-07-31T11:22:50;1.13;;;1.03;;
12312;SDS011;6220;53.580;9.758;2023-07-31T11:25:17;1.57;;;1.00;;
12312;SDS011;6220;53.580;9.758;2023-07-31T11:27:43;1.03;;;0.93;;
12312;SDS011;6220;53.580;9.758;2023-07-31T11:30:09;1.27;;;0.90;;
12312;SDS011;6220;53.580;9.758;2023-07-31T11:32:38;1.00;;;0.90;;
12312;SDS011;6220;53.580;9.758;2023-07-31T11:35:03;0.97;;;0.63;;
12312;SDS011;6220;53.580;9.758;2023-07-31T11:37:43;0.90;;;0.70;;
12312;SDS011;6220;53.580;9.758;2023-07-31T11:40:09;2.73;;;1.10;;
12312;SDS011;6220;53.580;9.758;2023-07-31T11:42:35;2.00;;;0.77;;
12312;SDS011;6220;53.580;9.758;2023-07-31T11:45:07;0.70;;;0.60;;
12312;SDS011;6220;53.580;9.758;2023-07-31T11:47:37;0.80;;;0.80;;
12312;SDS011;6220;53.580;9.758;2023-07-31T11:50:03;1.97;;;0.93;;
12312;SDS011;6220;53.580;9.758;2023-07-31T11:52:30;1.20;;;0.80;;
12312;SDS011;6220;53.580;9.758;2023-07-31T11:54:59;2.00;;;0.70;;
12312;SDS011;6220;53.580;9.758;2023-07-31T11:57:25;2.57;;;0.97;;
12312;SDS011;6220;53.580;9.758;2023-07-31T11:59:50;0.87;;;0.70;;
12312;SDS011;6220;53.580;9.758;2023-07-31T12:02:16;0.67;;;0.60;;
12312;SDS011;6220;53.580;9.758;2023-07-31T12:04:42;1.03;;;0.90;;
12312;SDS011;6220;53.580;9.758;2023-07-31T12:07:08;1.70;;;1.57;;
12312;SDS011;6220;53.580;9.758;2023-07-31T12:09:33;0.77;;;0.70;;
12312;SDS011;6220;53.580;9.758;2023-07-31T12:11:58;0.90;;;0.90;;
12312;SDS011;6220;53.580;9.758;2023-07-31T12:14:25;0.80;;;0.80;;
12312;SDS011;6220;53.580;9.758;2023-07-31T12:17:03;0.97;;;0.80;;
12312;SDS011;6220;53.580;9.758;2023-07-31T12:19:29;0.87;;;0.70;;
12312;SDS011;6220;53.580;9.758;2023-07-31T12:21:55;1.17;;;0.90;;
12312;SDS011;6220;53.580;9.758;2023-07-31T12:24:21;1.17;;;0.70;;
12312;SDS011;6220;53.580;9.758;2023-07-31T12:26:47;0.90;;;0.70;;
12312;SDS011;6220;53.580;9.758;2023-07-31T12:29:14;1.03;;;0.83;;
12312;SDS011;6220;53.580;9.758;2023-07-31T12:31:43;0.70;;;0.70;;
12312;SDS011;6220;53.580;9.758;2023-07-31T12:34:18;1.00;;;0.77;;
12312;SDS011;6220;53.580;9.758;2023-07-31T12:36:45;0.80;;;0.80;;
12312;SDS011;6220;53.580;9.758;2023-07-31T12:39:11;0.87;;;0.87;;
12312;SDS011;6220;53.580;9.758;2023-07-31T12:41:37;1.07;;;0.80;;
12312;SDS011;6220;53.580;9.758;2023-07-31T12:44:02;0.60;;;0.60;;
12312;SDS011;6220;53.580;9.758;2023-07-31T12:46:28;0.93;;;0.77;;
12312;SDS011;6220;53.580;9.758;2023-07-31T12:48:56;1.47;;;1.03;;
12312;SDS011;6220;53.580;9.758;2023-07-31T12:51:22;0.70;;;0.70;;
12312;SDS011;6220;53.580;9.758;2023-07-31T12:53:47;0.73;;;0.73;;
12312;SDS011;6220;53.580;9.758;2023-07-31T12:56:13;0.60;;;0.60;;
12312;SDS011;6220;53.580;9.758;2023-07-31T12:58:38;0.83;;;0.77;;
12312;SDS011;6220;53.580;9.758;2023-07-31T13:01:03;0.60;;;0.60;;
12312;SDS011;6220;53.580;9.758;2023-07-31T13:03:29;1.97;;;0.60;;
12312;SDS011;6220;53.580;9.758;2023-07-31T13:05:54;0.67;;;0.67;;
12312;SDS011;6220;53.580;9.758;2023-07-31T13:08:20;0.60;;;0.60;;
12312;SDS011;6220;53.580;9.758;2023-07-31T13:10:45;1.17;;;0.80;;
12312;SDS011;6220;53.580;9.758;2023-07-31T13:13:11;1.07;;;0.97;;
12312;SDS011;6220;53.580;9.758;2023-07-31T13:15:36;0.97;;;0.90;;
12312;SDS011;6220;53.580;9.758;2023-07-31T13:18:01;1.13;;;0.80;;
12312;SDS011;6220;53.580;9.758;2023-07-31T13:20:27;1.07;;;0.80;;
12312;SDS011;6220;53.580;9.758;2023-07-31T13:22:52;1.00;;;0.70;;
12312;SDS011;6220;53.580;9.758;2023-07-31T13:25:17;1.20;;;0.90;;
12312;SDS011;6220;53.580;9.758;2023-07-31T13:27:43;2.10;;;0.80;;
12312;SDS011;6220;53.580;9.758;2023-07-31T13:30:08;0.97;;;0.70;;
12312;SDS011;6220;53.580;9.758;2023-07-31T13:32:34;0.70;;;0.70;;
12312;SDS011;6220;53.580;9.758;2023-07-31T13:35:04;1.23;;;0.60;;
12312;SDS011;6220;53.580;9.758;2023-07-31T13:37:31;0.77;;;0.77;;
12312;SDS011;6220;53.580;9.758;2023-07-31T13:39:56;0.70;;;0.70;;
12312;SDS011;6220;53.580;9.758;2023-07-31T13:42:21;1.60;;;1.30;;
12312;SDS011;6220;53.580;9.758;2023-07-31T13:44:47;1.20;;;1.10;;
12312;SDS011;6220;53.580;9.758;2023-07-31T13:47:12;1.10;;;1.00;;
12312;SDS011;6220;53.580;9.758;2023-07-31T13:49:37;1.83;;;1.10;;
12312;SDS011;6220;53.580;9.758;2023-07-31T13:52:04;2.80;;;1.10;;
12312;SDS011;6220;53.580;9.758;2023-07-31T13:54:29;1.30;;;1.10;;
12312;SDS011;6220;53.580;9.758;2023-07-31T13:56:55;1.00;;;0.90;;
12312;SDS011;6220;53.580;9.758;2023-07-31T13:59:22;1.27;;;0.93;;
12312;SDS011;6220;53.580;9.758;2023-07-31T14:01:49;1.20;;;0.90;;
12312;SDS011;6220;53.580;9.758;2023-07-31T14:04:15;0.60;;;0.60;;
12312;SDS011;6220;53.580;9.758;2023-07-31T14:06:40;1.00;;;0.90;;
12312;SDS011;6220;53.580;9.758;2023-07-31T14:09:07;1.10;;;1.00;;
12312;SDS011;6220;53.580;9.758;2023-07-31T14:11:32;0.83;;;0.83;;
12312;SDS011;6220;53.580;9.758;2023-07-31T14:13:58;1.77;;;1.13;;
12312;SDS011;6220;53.580;9.758;2023-07-31T14:16:23;1.20;;;1.10;;
12312;SDS011;6220;53.580;9.758;2023-07-31T14:18:49;1.13;;;1.00;;
12312;SDS011;6220;53.580;9.758;2023-07-31T14:21:15;2.23;;;1.10;;
12312;SDS011;6220;53.580;9.758;2023-07-31T14:23:40;1.90;;;1.10;;
12312;SDS011;6220;53.580;9.758;2023-07-31T14:26:07;1.37;;;1.00;;
12312;SDS011;6220;53.580;9.758;2023-07-31T14:28:32;2.33;;;1.10;;
12312;SDS011;6220;53.580;9.758;2023-07-31T14:30:58;0.93;;;0.83;;
12312;SDS011;6220;53.580;9.758;2023-07-31T14:33:23;2.90;;;0.83;;
12312;SDS011;6220;53.580;9.758;2023-07-31T14:35:48;0.97;;;0.60;;
12312;SDS011;6220;53.580;9.758;2023-07-31T14:38:14;1.53;;;0.80;;
12312;SDS011;6220;53.580;9.758;2023-07-31T14:40:39;1.63;;;0.90;;
12312;SDS011;6220;53.580;9.758;2023-07-31T14:43:04;3.10;;;1.40;;
12312;SDS011;6220;53.580;9.758;2023-07-31T14:45:30;3.53;;;0.90;;
12312;SDS011;6220;53.580;9.758;2023-07-31T14:47:55;2.10;;;0.80;;
12312;SDS011;6220;53.580;9.758;2023-07-31T14:50:22;1.00;;;0.90;;
12312;SDS011;6220;53.580;9.758;2023-07-31T14:52:48;0.73;;;0.70;;
12312;SDS011;6220;53.580;9.758;2023-07-31T14:55:14;1.00;;;0.80;;
12312;SDS011;6220;53.580;9.758;2023-07-31T14:57:39;1.47;;;1.10;;
12312;SDS011;6220;53.580;9.758;2023-07-31T15:00:05;0.70;;;0.70;;
12312;SDS011;6220;53.580;9.758;2023-07-31T15:02:33;1.30;;;0.80;;
12312;SDS011;6220;53.580;9.758;2023-07-31T15:04:59;1.87;;;0.90;;
12312;SDS011;6220;53.580;9.758;2023-07-31T15:07:25;0.77;;;0.70;;